Juan de Fuca Strait - central strait: Past 24 Hour Conditions

 

Sheringham Point

03:00 PM PDT 30 August 2014
This table is a summary of hourly weather conditions for the past 24 hours.
Date / Time
(PDT)
Wind(knots) Conditions Visibility(km) Pressure(kPa) Air tempC) Relative humidity(%) Dew pointC)
30 August 2014
15:00 WNW 10 N/A N/A 101.3 12 100 12
14:00 W 9 N/A N/A 101.3 13 99 13
13:00 WNW 10 N/A N/A 101.3 13 99 13
12:00 WNW 6 N/A N/A 101.3 13 99 13
11:00 W 2 N/A N/A 101.3 13 100 13
10:00 WNW 4 N/A N/A 101.3 13 100 13
9:00 WNW 3 N/A N/A 101.3 13 99 13
8:00 NW 3 N/A N/A 101.3 13 100 13
7:00 WNW 2 N/A N/A 101.3 13 99 13
6:00 E 3 N/A N/A 101.3 12 99 12
5:00 ENE 1 N/A N/A 101.3 14 93 12
4:00 NW 4 N/A N/A 101.3 16 87 13
3:00 NW 4 N/A N/A 101.3 15 89 14
2:00 WNW 7 N/A N/A 101.4 15 90 14
1:00 WNW 6 N/A N/A 101.4 13 91 12
0:00 WNW 5 N/A N/A 101.4 14 90 12
29 August 2014
23:00 NW 5 N/A N/A 101.4 16 84 13
22:00 WNW 4 N/A N/A 101.4 16 82 12
21:00 WNW 6 N/A N/A 101.4 16 81 13
20:00 NW 7 N/A N/A 101.4 16 83 13
19:00 WNW 12 N/A N/A 101.4 16 79 13
18:00 WNW 10 N/A N/A 101.5 17 83 14
17:00 WNW 12 N/A N/A 101.5 16 91 14
16:00 WNW 10 N/A N/A 101.5 13 89 11
15:00 WNW 13 N/A N/A 101.5 16 82 13
 
Map of Pacific - Georgia Basin marine weather areas Tsawwassen Ferry Terminal Sentry Shoal - 46131 Halibut Bank - 46146 La Perouse Bank - 46206 Discovery Island Esquimalt Harbour Kelp Reefs Malahat Race Rocks Lightstation Saturna Island Sheringham Point University of Victoria Victoria Gonzales Victoria Int'l Airport Ballenas Islands Campbell River Airport Comox Airport Entrance Island Fanny Island Nanaimo Airport Sisters Islets Estevan Point Tofino Airport Grief Point Powell River Airport Sechelt Point Atkinson Sand Heads Lightstation Vancouver Harbour Vancouver Int'l Airport West Vancouver Port Alberni Howe Sound - Pam Rocks Squamish Airport